Weather observations for the past three days for
Duplin County Airport
Imperial (Metric)
Date Time (edt) Wind (mph) Vis. (mi.) Weather Sky Cond. Temperature (ºF) Relative Humidity Wind Chill (°F) Heat Index (°F) Pressure Precipitation (in)
Air Dwpt 6 hour altimeter (in) sea level (mb) 1 hr 3 hr 6 hr
Max. Min.
02 10:15 SW 6 7.00 Fair CLR 86 75.2 70% 95 30.07 0.0
02 09:55 SW 7 7.00 Fair CLR 84.2 75.2 74% 92 30.07 0.0
02 09:35 SW 7 10.00 Fair CLR 84.2 75.2 74% 92 30.07 0.0
02 09:15 SW 6 10.00 Fair CLR 82.4 75.2 79% 89 30.08 0.0
02 08:55 SW 7 10.00 Fair CLR 80.6 75.2 84% 86 30.08 0.0
02 08:35 SW 7 10.00 Fair CLR 80.6 75.2 84% 86 30.08 0.0
02 08:15 SW 6 7.00 Fair CLR 77 73.4 89% 78 30.08 0.0
02 07:55 SW 6 7.00 Fair CLR 75.2 73.4 94% 74 30.08 0.0
02 07:35 SW 5 7.00 Fair CLR 75.2 73.4 94% 74 30.08 0.0
02 07:15 Calm 7.00 Fog/Mist CLR 73.4 73.4 100% 30.07 0.0
02 06:55 SW 3 7.00 Fog/Mist CLR 73.4 73.4 100% 30.07 0.0
02 06:35 Calm 7.00 Fair CLR 73.4 73.4 100% 30.07 0.0
02 06:15 Calm 7.00 Fair CLR 73.4 73.4 100% 30.07 0.0
02 05:55 Calm 7.00 Mostly Cloudy BKN070 73.4 73.4 100% 30.07 0.0
02 05:35 Calm 7.00 Mostly Cloudy BKN070 73.4 73.4 100% 30.07 0.0
02 05:15 Calm 7.00 Fair CLR 73.4 73.4 100% 30.07 0.0
02 04:55 Calm 7.00 Fair CLR 75.2 73.4 94% 74 30.06 0.0
02 04:35 SW 3 7.00 Fair CLR 73.4 73.4 100% 30.06 0.0
02 04:15 Calm 7.00 Fair CLR 73.4 73.4 100% 30.06 0.0
02 03:55 SW 3 7.00 Fair CLR 75.2 73.4 94% 74 30.06 0.0
02 03:35 Calm 10.00 Fair CLR 75.2 73.4 94% 74 30.06 0.0
02 03:15 Calm 10.00 Fair CLR 75.2 73.4 94% 74 30.06 0.0
02 02:55 Calm 10.00 Fair CLR 75.2 73.4 94% 74 30.06 0.0
02 02:15 Calm 10.00 Fair CLR 75.2 73.4 94% 74 30.07 0.0
02 01:55 Calm 10.00 Fair CLR 75.2 73.4 94% 74 30.07 0.0
02 01:35 SW 3 10.00 Fair CLR 75.2 73.4 94% 74 30.07 0.0
02 01:15 SW 3 10.00 Fair CLR 75.2 73.4 94% 74 30.07 0.0
02 00:55 SW 3 10.00 Fair CLR 77 73.4 89% 78 30.06 0.0
02 00:35 SW 3 10.00 Fair CLR 77 73.4 89% 78 30.06 0.0
02 00:15 SW 3 10.00 Fair CLR 77 73.4 89% 78 30.06 0.0
01 23:55 Calm 10.00 Fair CLR 77 73.4 89% 78 30.05 0.0
01 23:35 S 3 10.00 Fair CLR 78.8 73.4 84% 82 30.05 0.0
01 23:15 S 3 10.00 Fair CLR 78.8 73.4 84% 82 30.05 0.0
01 22:55 Calm 10.00 Fair CLR 78.8 73.4 84% 82 30.05 0.0
01 22:35 S 5 10.00 Fair CLR 78.8 73.4 84% 82 30.05 0.0
01 22:15 S 3 10.00 Fair CLR 78.8 73.4 84% 82 30.05 0.0
01 21:55 S 5 10.00 Fair CLR 80.6 73.4 79% 85 30.04 0.0
01 21:35 S 5 10.00 Fair CLR 80.6 75.2 84% 86 30.04 0.0
01 21:15 S 6 10.00 Fair CLR 80.6 75.2 84% 86 30.04 0.0
01 20:55 S 6 10.00 Fair CLR 82.4 75.2 79% 89 30.03 0.0
01 20:35 S 6 10.00 Fair CLR 82.4 77 84% 91 30.03 0.0
01 20:15 S 7 10.00 Fair CLR 84.2 77 79% 94 30.03 0.0
01 19:55 S 6 10.00 Fair CLR 82.4 77 84% 91 30.03 0.0
01 19:35 S 3 10.00 Fair CLR 82.4 78.8 89% 92 30.03 0.0
01 19:15 S 3 7.00 Fair CLR 84.2 78.8 84% 96 30.03 0.0
01 18:55 Calm 7.00 Fair CLR 86 78.8 79% 99 30.03 0.0
01 18:35 Calm 7.00 Fair CLR 87.8 80.6 79% 105 30.02 0.0
01 18:15 SW 5 10.00 Fair CLR 91.4 77 63% 105 30.02 0.0
01 17:55 SW 5 10.00 Fair CLR 93.2 73.4 53% 103 30.02 0.0
01 17:35 SW 5 10.00 Partly Cloudy SCT095 93.2 73.4 53% 103 30.02 0.0
01 17:15 S 3 10.00 Partly Cloudy SCT095 93.2 73.4 53% 103 30.03 0.0
01 16:55 W 3 10.00 Fair CLR 95 73.4 50% 105 30.03 0.0
01 16:35 W 3 7.00 Fair CLR 95 73.4 50% 105 30.03 0.0
01 16:15 SW 3 10.00 Fair CLR 93.2 73.4 53% 103 30.03 0.0
01 15:55 SW 3 10.00 Fair CLR 93.2 73.4 53% 103 30.04 0.0
01 15:35 Calm 10.00 Fair CLR 93.2 73.4 53% 103 30.04 0.0
01 15:15 Calm 10.00 Fair CLR 93.2 71.6 50% 101 30.05 0.0
01 14:55 SW 5 7.00 Mostly Cloudy BKN050 BKN060 BKN080 93.2 73.4 53% 103 30.05 0.0
01 14:35 SW 7 7.00 Mostly Cloudy SCT050 BKN060 BKN080 93.2 73.4 53% 103 30.06 0.0
01 14:15 Calm 7.00 Partly Cloudy SCT050 93.2 73.4 53% 103 30.06 0.0
01 13:55 S 3 7.00 Partly Cloudy SCT050 91.4 73.4 56% 100 30.06 0.0
01 13:35 Calm 7.00 Fair CLR 91.4 73.4 56% 100 30.07 0.0
01 13:15 Calm 10.00 Mostly Cloudy SCT042 SCT050 BKN080 91.4 77 63% 105 30.07 0.0
01 12:55 W 5 10.00 Mostly Cloudy SCT044 SCT060 BKN070 91.4 75.2 59% 103 30.08 0.0
01 12:35 W 5 10.00 Fair CLR 91.4 75.2 59% 103 30.08 0.0
01 12:15 Calm 10.00 Partly Cloudy SCT035 87.8 75.2 66% 98 30.09 0.0
01 11:55 N 3 10.00 Fair CLR 87.8 75.2 66% 98 30.09 0.0
01 11:35 Calm 7.00 Fair CLR 89.6 77 67% 103 30.1 0.0
01 10:55 W 5 10.00 Fair CLR 87.8 77 70% 100 30.1 0.0
01 10:35 W 6 7.00 Fair CLR 87.8 77 70% 100 30.11 0.0
01 10:15 W 3 7.00 Fair CLR 86 77 75% 97 30.11 0.0
01 09:55 W 5 10.00 Fair CLR 84.2 77 79% 94 30.11 0.0
01 09:35 W 6 10.00 Fair CLR 84.2 77 79% 94 30.11 0.0
01 09:15 W 6 7.00 Fair CLR 82.4 77 84% 91 30.11 0.0
01 08:55 W 5 10.00 Fair CLR 80.6 77 89% 87 30.11 0.0
01 08:35 W 5 10.00 Fair CLR 78.8 75.2 89% 82 30.1 0.0
01 08:15 W 5 10.00 Fair CLR 77 75.2 94% 78 30.1 0.0
01 07:55 Calm 7.00 Fog/Mist CLR 75.2 73.4 94% 74 30.09 0.0
01 07:35 Calm 7.00 Fog/Mist CLR 71.6 71.6 100% 30.09 0.0
01 07:15 Calm 7.00 Fog/Mist SCT002 69.8 69.8 100% 30.09 0.0
01 06:50 Calm 5.00 Fog/Mist SCT002 69.8 69.8 100% 30.09 0.0
01 06:35 Calm 0.75 Fog/Mist OVC002 69.8 69.8 100% 30.08 0.0
01 06:15 Calm 7.00 Mostly Cloudy BKN002 69.8 69.8 100% 30.08 0.0
01 05:55 Calm 7.00 Fair CLR 69.8 69.8 100% 30.08 0.0
01 05:35 Calm 7.00 Fair CLR 71.6 69.8 94% 30.08 0.0
01 05:15 Calm 7.00 Fair CLR 71.6 71.6 100% 30.08 0.0
01 04:55 Calm 7.00 Fair CLR 69.8 69.8 100% 30.08 0.0
01 04:35 Calm 7.00 Fair CLR 71.6 71.6 100% 30.08 0.0
01 04:15 Calm 7.00 Fair CLR 71.6 71.6 100% 30.08 0.0
01 03:55 Calm 7.00 Fair CLR 71.6 71.6 100% 30.09 0.0
01 03:35 Calm 7.00 Fair CLR 71.6 71.6 100% 30.09 0.0
01 03:15 Calm 7.00 Fair CLR 71.6 71.6 100% 30.09 0.0
01 02:55 Calm 7.00 Fair CLR 71.6 71.6 100% 30.09 0.0
01 02:35 Calm 7.00 Fair CLR 73.4 73.4 100% 30.1 0.0
01 02:15 Calm 7.00 Fair CLR 73.4 73.4 100% 30.1 0.0
01 01:55 Calm 7.00 Fair CLR 73.4 73.4 100% 30.1 0.0
01 01:35 Calm 7.00 Fair CLR 73.4 73.4 100% 30.11 0.0
01 01:15 Calm 10.00 Fair CLR 75.2 73.4 94% 74 30.11 0.0
01 00:55 Calm 10.00 Fair CLR 73.4 73.4 100% 30.11 0.0
01 00:35 Calm 10.00 Fair CLR 75.2 73.4 94% 74 30.11 0.0
01 00:15 Calm 10.00 Fair CLR 75.2 75.2 100% 73 30.11 0.0
31 23:55 Calm 10.00 Fair CLR 75.2 75.2 100% 73 30.1 0.0
31 23:35 Calm 10.00 Fair CLR 75.2 73.4 94% 74 30.1 0.0
31 23:15 Calm 10.00 Fair CLR 75.2 75.2 100% 73 30.11 0.0
31 22:55 S 3 7.00 Fair CLR 75.2 75.2 100% 73 30.11 0.0
31 22:35 S 3 7.00 Fair CLR 75.2 75.2 100% 73 30.11 0.0
31 22:15 Calm 10.00 Fair CLR 77 75.2 94% 78 30.11 0.0
31 21:55 Calm 10.00 Fair CLR 77 75.2 94% 78 30.11 0.0
31 21:35 Calm 10.00 Fair CLR 78.8 75.2 89% 82 30.1 0.0
31 21:15 S 3 10.00 Fair CLR 78.8 75.2 89% 82 30.09 0.0
31 20:55 S 5 10.00 Fair CLR 78.8 77 94% 83 30.09 0.0
31 20:35 S 5 10.00 Fair CLR 78.8 75.2 89% 82 30.08 0.0
31 20:15 S 5 10.00 Partly Cloudy SCT050 80.6 75.2 84% 86 30.08 0.0
31 19:35 Calm 10.00 Fair CLR 78.8 75.2 89% 82 30.07 0.0
31 19:15 Calm 10.00 Fair CLR 80.6 77 89% 87 30.07 0.0
31 18:55 Calm 10.00 Fair CLR 84.2 75.2 74% 92 30.06 0.0
31 18:35 Calm 10.00 Fair CLR 86 73.4 66% 93 30.06 0.0
31 18:15 Calm 10.00 Fair CLR 89.6 71.6 55% 96 30.06 0.0
31 17:55 Calm 10.00 Fair CLR 89.6 69.8 52% 95 30.06 0.0
31 17:35 Calm 10.00 Fair CLR 91.4 69.8 49% 97 30.06 0.0
31 17:15 Calm 10.00 Fair CLR 91.4 69.8 49% 97 30.06 0.0
31 16:55 Calm 10.00 Fair CLR 91.4 69.8 49% 97 30.06 0.0
31 16:35 Calm 10.00 Fair CLR 91.4 69.8 49% 97 30.07 0.0
31 16:15 W 3 7.00 Fair CLR 91.4 69.8 49% 97 30.07 0.0
31 15:55 N 5 10.00 Fair CLR 91.4 69.8 49% 97 30.08 0.0
31 15:35 Calm 10.00 Partly Cloudy SCT045 89.6 69.8 52% 95 30.08 0.0
31 15:15 NE 5 10.00 Overcast BKN045 OVC050 91.4 73.4 56% 100 30.09 0.0
31 14:55 Calm 10.00 Overcast BKN045 OVC050 89.6 71.6 55% 96 30.1 0.0
31 14:35 S 5 10.00 Partly Cloudy SCT043 SCT050 91.4 73.4 56% 100 30.1 0.0
31 14:15 Calm 10.00 Fair CLR 89.6 73.4 59% 98 30.11 0.0
31 13:55 Calm 10.00 Fair CLR 89.6 73.4 59% 98 30.12 0.0
31 13:35 Calm 10.00 Partly Cloudy SCT039 87.8 73.4 62% 96 30.12 0.0
31 13:15 Calm 10.00 Mostly Cloudy BKN037 86 73.4 66% 93 30.12 0.0
31 12:55 NW 3 10.00 Mostly Cloudy BKN037 86 71.6 62% 92 30.13 0.0
31 12:35 N 3 10.00 Partly Cloudy SCT037 87.8 73.4 62% 96 30.13 0.0
31 12:15 S 6 10.00 Fair CLR 86 73.4 66% 93 30.14 0.0
31 11:55 SW 3 10.00 Partly Cloudy SCT027 86 75.2 70% 95 30.14 0.0
31 11:35 SW 3 10.00 Partly Cloudy SCT025 SCT036 86 75.2 70% 95 30.14 0.0
31 11:15 NW 6 7.00 Partly Cloudy SCT027 SCT036 84.2 75.2 74% 92 30.14 0.0
31 10:55 Calm 7.00 Fair CLR 84.2 75.2 74% 92 30.14 0.0
31 10:35 NE 5 10.00 Fair CLR 84.2 75.2 74% 92 30.14 0.0
31 10:15 Calm 10.00 Fair CLR 82.4 75.2 79% 89 30.14 0.0
31 09:55 Calm 7.00 Fair CLR 80.6 75.2 84% 86 30.13 0.0
31 09:35 NE 3 7.00 Fair CLR 80.6 75.2 84% 86 30.13 0.0
31 09:15 Calm 7.00 Fair CLR 78.8 73.4 84% 82 30.13 0.0
31 08:55 Calm 7.00 Fair CLR 77 73.4 89% 78 30.13 0.0
31 08:35 Calm 10.00 Fair CLR 75.2 73.4 94% 74 30.13 0.0
31 08:15 NW 3 7.00 Fair CLR 75.2 73.4 94% 74 30.13 0.0
31 07:55 Calm 7.00 Fog/Mist CLR 73.4 71.6 94% 30.13 0.0
31 07:35 Calm 7.00 Fog/Mist CLR 69.8 68 94% 30.12 0.0
31 07:15 Calm 7.00 Fog/Mist CLR 68 68 100% 30.12 0.0
31 06:55 Calm 5.00 Fog/Mist CLR 68 68 100% 30.12 0.0
31 06:35 Calm 7.00 Partly Cloudy SCT002 69.8 68 94% 30.12 0.0
31 06:15 Calm 7.00 Fair CLR 68 68 100% 30.11 0.0
31 05:55 Calm 4.00 Fog/Mist CLR 69.8 68 94% 30.11 0.0
31 05:35 Calm 7.00 Fair CLR 68 68 100% 30.11 0.0
31 05:15 Calm 7.00 Fog/Mist CLR 68 68 100% 30.11 0.0
31 04:55 Calm 7.00 Fair CLR 68 68 100% 30.12 0.0
31 04:35 Calm 7.00 Fair CLR 68 0 0% 30.12 0.0
31 04:15 Calm 7.00 Fair CLR 69.8 0 0% 30.12 0.0
31 03:55 Calm 7.00 Fair CLR 68 0 0% 30.11 0.0
31 03:35 Calm 7.00 Fair with Haze CLR 69.8 0 0% 30.11 0.0
31 03:15 Calm 5.00 Partly Cloudy with Haze SCT002 69.8 0 0% 30.12 0.0
31 02:55 Calm 7.00 Fair CLR 69.8 69.8 100% 30.11 0.0
31 02:35 Calm 7.00 Fair CLR 69.8 69.8 100% 30.12 0.0
31 01:55 Calm 7.00 Fog/Mist CLR 69.8 69.8 100% 30.14 0.0
31 01:35 Calm 7.00 Fair CLR 71.6 71.6 100% 30.14 0.0
31 01:15 Calm 7.00 Fair CLR 71.6 71.6 100% 30.14 0.0
31 00:55 Calm 7.00 Fair CLR 71.6 71.6 100% 30.14 0.0
31 00:35 Calm 7.00 Fog/Mist CLR 71.6 71.6 100% 30.13 0.0
31 00:15 SW 3 7.00 Fair CLR 73.4 73.4 100% 30.14 0.0
30 23:55 Calm 7.00 Fair CLR 71.6 71.6 100% 30.14 0.0
30 23:35 Calm 7.00 Fair CLR 73.4 71.6 94% 30.14 0.0
30 23:15 Calm 7.00 Fair CLR 73.4 73.4 100% 30.14 0.0
30 22:55 Calm 7.00 Fair CLR 73.4 73.4 100% 30.15 0.0
30 22:35 SE 3 10.00 Fair CLR 73.4 73.4 100% 30.14 0.0
30 22:15 E 5 7.00 Fair CLR 71.6 71.6 100% 30.15 0.0
30 21:55 Calm 10.00 Fair CLR 73.4 73.4 100% 30.14 0.0
30 21:35 Calm 10.00 Fair CLR 73.4 73.4 100% 30.14 0.0
30 21:15 Calm 10.00 Fair CLR 73.4 73.4 100% 30.14 0.0
30 20:55 Calm 10.00 Fair CLR 73.4 73.4 100% 30.12 0.0
30 20:35 Calm 10.00 Fair CLR 75.2 73.4 94% 74 30.12 0.0
30 20:15 Calm 10.00 Fair CLR 75.2 73.4 94% 74 30.12 0.0
30 19:55 Calm 10.00 Fair CLR 77 73.4 89% 78 30.12 0.0
30 19:35 Calm 10.00 Fair CLR 77 73.4 89% 78 30.12 0.0
30 19:15 Calm 10.00 Fair CLR 77 73.4 89% 78 30.13 0.0
30 18:55 S 3 10.00 Partly Cloudy SCT055 78.8 73.4 84% 82 30.13 0.0
30 18:35 S 5 10.00 Partly Cloudy SCT055 78.8 73.4 84% 82 30.14 0.0
30 18:15 S 6 10.00 Partly Cloudy SCT055 80.6 73.4 79% 85 30.14 0.0
30 17:55 S 6 10.00 Fair CLR 80.6 75.2 84% 86 30.14 0.0
30 17:35 S 7 10.00 Partly Cloudy SCT033 82.4 75.2 79% 89 30.14 0.0
30 17:15 S 8 10.00 Partly Cloudy SCT033 84.2 73.4 70% 91 30.13 0.0
30 16:55 Calm 10.00 Fair CLR 86 73.4 66% 93 30.13 0.0
30 16:35 Calm 10.00 Fair CLR 86 73.4 66% 93 30.13 0.0
30 16:15 NW 6 7.00 Fair CLR 86 73.4 66% 93 30.13 0.0
30 15:55 N 3 10.00 Fair CLR 86 71.6 62% 92 30.14 0.0
30 15:35 NW 3 10.00 Partly Cloudy SCT037 86 71.6 62% 92 30.15 0.0
30 15:15 NW 6 7.00 Partly Cloudy SCT037 84.2 73.4 70% 91 30.15 0.0
30 14:55 NW 6 10.00 Partly Cloudy SCT030 SCT038 86 73.4 66% 93 30.15 0.0
30 14:35 NW 7 10.00 Partly Cloudy SCT036 84.2 73.4 70% 91 30.15 0.0
30 14:15 N 5 10.00 Mostly Cloudy SCT029 BKN035 84.2 73.4 70% 91 30.16 0.0
30 13:55 NW 3 10.00 Mostly Cloudy BKN030 84.2 73.4 70% 91 30.16 0.0
30 13:35 N 6 10.00 Overcast OVC032 84.2 73.4 70% 91 30.17 0.0
30 13:15 Calm 7.00 Mostly Cloudy BKN028 84.2 71.6 66% 90 30.17 0.0
30 12:55 E 5 7.00 Partly Cloudy SCT028 84.2 71.6 66% 90 30.18 0.0
30 12:35 NW 5 10.00 Fair CLR 82.4 73.4 74% 88 30.19 0.0
30 12:15 N 6 10.00 Partly Cloudy SCT018 82.4 73.4 74% 88 30.19 0.0
30 11:55 Calm 7.00 Partly Cloudy SCT018 80.6 73.4 79% 85 30.2 0.0
30 11:35 Calm 7.00 Partly Cloudy SCT014 SCT019 78.8 73.4 84% 82 30.2 0.0
30 11:15 NE 3 7.00 Overcast OVC012 78.8 73.4 84% 82 30.21 0.0
30 10:55 Calm 7.00 Fog/Mist OVC008 78.8 75.2 89% 82 30.21 0.0 0.01
30 10:35 SE 3 7.00 Fog/Mist OVC006 77 73.4 89% 78 30.21 0.0
Date Time (edt) Wind (mph) Vis. (mi.) Weather Sky Cond. Air Dwpt Max. Min. Relative Humidity Wind Chill (°F) Heat Index (°F) altimeter (in) sea level (mb) 1 hr 3 hr 6 hr
6 hour
Temperature (ºF) Pressure Precipitation (in)